Time;durP1;ratioP1;P1;durP2;ratioP2;P2;SDS_P1;SDS_P2;PMS_P1;PMS_P2;Temp;Humidity;BMP_temperature;BMP_pressure;BME280_temperature;BME280_humidity;BME280_pressure;Samples;Min_cycle;Max_cycle;Signal;HPM_P1;HPM_P2
2023/04/24 00:02:10;;;;;;;17.92;9.00;;;8.20;99.90;;;;;;4442664;28;659134;-68
2023/04/24 00:05:02;;;;;;;19.17;9.60;;;8.20;99.90;;;;;;4426217;28;658644;-68
2023/04/24 00:07:52;;;;;;;18.97;9.57;;;8.20;99.90;;;;;;4417663;28;658551;-68
2023/04/24 00:10:39;;;;;;;18.03;9.17;;;8.10;99.90;;;;;;4375824;28;659225;-69
2023/04/24 00:13:28;;;;;;;16.23;8.43;;;8.10;99.90;;;;;;4420592;28;658906;-68
2023/04/24 00:16:15;;;;;;;16.33;8.70;;;8.00;99.90;;;;;;4431045;28;658389;-69
2023/04/24 00:19:02;;;;;;;15.93;8.70;;;8.00;99.90;;;;;;4440435;28;659374;-68
2023/04/24 00:21:52;;;;;;;13.40;8.27;;;8.00;99.90;;;;;;4433902;28;658639;-69
2023/04/24 00:24:39;;;;;;;17.47;8.33;;;7.90;99.90;;;;;;4442123;28;658956;-67
2023/04/24 00:27:26;;;;;;;15.57;8.33;;;7.90;99.90;;;;;;4427002;28;659509;-68
2023/04/24 00:30:13;;;;;;;22.93;9.97;;;7.90;99.90;;;;;;4454886;28;659402;-68
2023/04/24 00:33:00;;;;;;;15.70;8.40;;;7.90;99.90;;;;;;4421461;28;658871;-68
2023/04/24 00:35:48;;;;;;;17.17;9.00;;;7.90;99.90;;;;;;4457764;28;658726;-68
2023/04/24 00:38:37;;;;;;;17.07;9.57;;;7.90;99.90;;;;;;4442319;28;658396;-69
2023/04/24 00:41:24;;;;;;;15.63;8.20;;;7.90;99.90;;;;;;4440128;28;659189;-68
2023/04/24 00:44:11;;;;;;;14.57;7.97;;;7.80;99.90;;;;;;4424681;28;659278;-68
2023/04/24 00:46:58;;;;;;;15.27;8.03;;;7.80;99.90;;;;;;4445049;28;659528;-69
2023/04/24 00:49:45;;;;;;;15.37;7.50;;;7.80;99.90;;;;;;4424500;28;658337;-69
2023/04/24 00:52:33;;;;;;;14.37;7.90;;;7.80;1.00;;;;;;4453702;28;659495;-68
2023/04/24 00:55:22;;;;;;;17.07;7.63;;;7.70;1.00;;;;;;4445633;28;658085;-69
2023/04/24 00:58:09;;;;;;;20.83;8.00;;;7.80;1.00;;;;;;4448891;28;658410;-68
2023/04/24 01:00:57;;;;;;;12.57;7.73;;;7.80;1.00;;;;;;4431291;27;657826;-70
2023/04/24 01:03:45;;;;;;;11.47;7.07;;;7.80;1.00;;;;;;4441286;28;659024;-68
2023/04/24 01:06:32;;;;;;;11.63;6.70;;;7.80;1.00;;;;;;4425297;28;659188;-68
2023/04/24 01:09:19;;;;;;;10.57;6.27;;;7.80;1.00;;;;;;4441402;28;657556;-68
2023/04/24 01:12:08;;;;;;;12.63;6.83;;;7.80;1.00;;;;;;4432062;28;657340;-68
2023/04/24 01:14:56;;;;;;;13.00;7.23;;;7.90;1.00;;;;;;4422634;28;657339;-68
2023/04/24 01:17:43;;;;;;;9.77;6.50;;;7.90;1.00;;;;;;4437107;28;658880;-68
2023/04/24 01:20:31;;;;;;;11.33;6.73;;;7.90;1.00;;;;;;4421389;28;657282;-68
2023/04/24 01:23:20;;;;;;;14.43;7.17;;;7.90;1.00;;;;;;4442899;28;658082;-68
2023/04/24 01:26:07;;;;;;;20.10;7.60;;;8.00;99.90;;;;;;4423968;28;658320;-69
2023/04/24 01:28:54;;;;;;;13.60;6.40;;;8.10;99.90;;;;;;4442452;28;659136;-67
2023/04/24 01:31:42;;;;;;;15.83;7.20;;;8.00;99.90;;;;;;4419414;28;658922;-68
2023/04/24 01:34:29;;;;;;;10.17;6.50;;;8.00;99.90;;;;;;4437316;28;658885;-68
2023/04/24 01:37:16;;;;;;;12.90;6.50;;;8.10;99.90;;;;;;4424212;28;658290;-69
2023/04/24 01:40:06;;;;;;;12.33;7.30;;;8.20;99.90;;;;;;4434007;28;658999;-69
2023/04/24 01:42:53;;;;;;;13.45;7.10;;;8.10;99.90;;;;;;4430780;28;659089;-68
2023/04/24 01:45:40;;;;;;;13.80;6.20;;;8.10;99.90;;;;;;4432879;28;658348;-69
2023/04/24 01:48:28;;;;;;;10.70;6.50;;;8.10;99.90;;;;;;4452433;28;659491;-68
2023/04/24 01:51:15;;;;;;;14.23;7.00;;;8.00;99.90;;;;;;4425221;28;658558;-69
2023/04/24 01:54:02;;;;;;;12.57;6.90;;;8.10;99.90;;;;;;4455551;28;658734;-68
2023/04/24 01:56:52;;;;;;;14.93;6.50;;;8.00;99.90;;;;;;4453812;28;659389;-69
2023/04/24 01:59:39;;;;;;;14.83;6.73;;;8.00;99.90;;;;;;4455029;28;659372;-69
2023/04/24 02:02:27;;;;;;;14.30;5.87;;;8.00;99.90;;;;;;4427984;28;658470;-68
2023/04/24 02:05:14;;;;;;;12.90;6.23;;;8.10;99.90;;;;;;4420605;28;658574;-70
2023/04/24 02:08:02;;;;;;;10.23;6.47;;;8.10;99.90;;;;;;4351704;28;658757;-68
2023/04/24 02:10:49;;;;;;;11.87;6.07;;;8.10;99.90;;;;;;4409081;28;658789;-68
2023/04/24 02:13:37;;;;;;;19.20;6.13;;;8.10;99.90;;;;;;4416380;28;658948;-68
2023/04/24 02:16:25;;;;;;;8.87;5.80;;;8.10;99.90;;;;;;4446405;28;658932;-68
2023/04/24 02:19:12;;;;;;;14.00;5.97;;;8.20;99.90;;;;;;4428104;28;659142;-68
2023/04/24 02:21:59;;;;;;;11.53;6.07;;;8.20;99.90;;;;;;4452047;28;658880;-68
2023/04/24 02:24:46;;;;;;;13.40;5.95;;;8.30;99.90;;;;;;4435599;28;658867;-68
2023/04/24 02:27:33;;;;;;;11.93;5.90;;;8.30;99.90;;;;;;4438307;28;659780;-68
2023/04/24 02:30:22;;;;;;;9.47;5.67;;;8.30;99.90;;;;;;4413628;28;658705;-68
2023/04/24 02:33:09;;;;;;;11.27;5.73;;;8.40;99.90;;;;;;4458695;28;657561;-68
2023/04/24 02:35:57;;;;;;;10.97;5.90;;;8.40;99.90;;;;;;4429179;28;658325;-69
2023/04/24 02:38:44;;;;;;;12.03;5.70;;;8.40;99.90;;;;;;4445304;28;659298;-68
2023/04/24 02:41:32;;;;;;;11.47;5.97;;;8.30;99.90;;;;;;4418904;28;658838;-68
2023/04/24 02:44:19;;;;;;;14.70;5.50;;;8.30;99.90;;;;;;4449630;28;658273;-69
2023/04/24 02:47:08;;;;;;;13.63;5.87;;;8.30;99.90;;;;;;4411818;28;661133;-67
2023/04/24 02:49:55;;;;;;;14.37;5.40;;;8.30;99.90;;;;;;4432031;28;658712;-69
2023/04/24 02:52:42;;;;;;;10.37;5.47;;;8.40;99.90;;;;;;4454583;28;659925;-68
2023/04/24 02:55:30;;;;;;;9.77;5.60;;;8.40;99.90;;;;;;4431865;28;658420;-69
2023/04/24 02:58:19;;;;;;;12.40;5.10;;;8.40;99.90;;;;;;4445607;28;658156;-69
2023/04/24 03:01:06;;;;;;;9.10;4.80;;;8.40;99.90;;;;;;4423205;28;658692;-68
2023/04/24 03:03:55;;;;;;;9.63;5.23;;;8.40;99.90;;;;;;4447066;28;657229;-69
2023/04/24 03:06:42;;;;;;;7.50;4.63;;;8.50;99.90;;;;;;4424824;28;658322;-68
2023/04/24 03:09:30;;;;;;;14.17;4.70;;;8.50;99.90;;;;;;4443714;28;658149;-68
2023/04/24 03:12:18;;;;;;;10.07;4.80;;;8.50;99.90;;;;;;4446848;28;658617;-69
2023/04/24 03:15:06;;;;;;;10.23;4.90;;;8.50;99.90;;;;;;4433990;28;659154;-69
2023/04/24 03:17:53;;;;;;;13.90;6.17;;;8.50;99.90;;;;;;4429058;28;660159;-68
2023/04/24 03:20:42;;;;;;;16.93;6.90;;;8.60;99.90;;;;;;4427888;28;659863;-68
2023/04/24 03:23:29;;;;;;;11.23;5.73;;;8.70;99.90;;;;;;4440996;28;658917;-68
2023/04/24 03:26:16;;;;;;;9.07;5.30;;;8.70;99.90;;;;;;4425705;28;658702;-68
2023/04/24 03:29:03;;;;;;;8.80;4.57;;;8.70;99.90;;;;;;4450746;28;658310;-68
2023/04/24 03:31:51;;;;;;;8.80;4.70;;;8.70;99.90;;;;;;4439990;28;658167;-68
2023/04/24 03:34:38;;;;;;;6.97;4.40;;;8.80;99.90;;;;;;4454835;28;658585;-68
2023/04/24 03:37:27;;;;;;;6.70;4.47;;;8.80;99.90;;;;;;4444495;28;658841;-69
2023/04/24 03:40:14;;;;;;;8.43;4.87;;;8.80;99.90;;;;;;4441279;28;657919;-68
2023/04/24 03:43:02;;;;;;;8.77;5.27;;;8.80;99.90;;;;;;4412720;28;658185;-69
2023/04/24 03:45:49;;;;;;;11.33;5.30;;;8.90;99.90;;;;;;4453217;28;657651;-68
2023/04/24 03:48:36;;;;;;;8.93;5.53;;;8.90;99.90;;;;;;4428528;28;658761;-68
2023/04/24 03:51:23;;;;;;;10.87;5.40;;;8.90;99.90;;;;;;4451400;28;659505;-69
2023/04/24 03:54:13;;;;;;;8.53;5.17;;;8.90;99.90;;;;;;4418357;28;658742;-69
2023/04/24 03:57:01;;;;;;;11.60;5.47;;;9.00;99.90;;;;;;4429186;28;657036;-69
2023/04/24 03:59:48;;;;;;;9.73;5.53;;;9.00;99.90;;;;;;4444511;28;659432;-68
2023/04/24 04:02:35;;;;;;;9.05;4.90;;;9.10;99.90;;;;;;4421489;28;657953;-70
2023/04/24 04:05:22;;;;;;;7.73;4.83;;;9.10;99.90;;;;;;4440862;28;657880;-68
2023/04/24 04:08:10;;;;;;;10.93;5.13;;;9.20;99.90;;;;;;4443159;28;657417;-69
2023/04/24 04:10:59;;;;;;;12.23;5.83;;;9.40;99.90;;;;;;4450629;28;659390;-68
2023/04/24 04:13:47;;;;;;;10.13;5.67;;;9.50;99.90;;;;;;4433083;28;659184;-68
2023/04/24 04:16:36;;;;;;;9.13;5.40;;;9.60;99.90;;;;;;4440126;28;658534;-69
2023/04/24 04:19:23;;;;;;;9.57;5.33;;;9.80;99.90;;;;;;4423751;28;658937;-68
2023/04/24 04:22:10;;;;;;;10.20;5.05;;;10.00;99.90;;;;;;4422227;28;658017;-69
2023/04/24 04:24:57;;;;;;;13.20;5.07;;;10.10;99.90;;;;;;4444475;28;660075;-69
2023/04/24 04:27:47;;;;;;;9.60;5.33;;;10.20;99.90;;;;;;4431573;28;659758;-69
2023/04/24 04:30:35;;;;;;;9.40;4.80;;;10.30;99.90;;;;;;4441129;28;659253;-69
2023/04/24 04:33:22;;;;;;;10.30;5.33;;;10.70;99.90;;;;;;4424983;28;658963;-68
2023/04/24 04:36:09;;;;;;;8.10;4.93;;;10.70;99.90;;;;;;4436846;28;659754;-68
2023/04/24 04:38:56;;;;;;;11.07;5.10;;;10.80;99.90;;;;;;4419270;28;658682;-68
2023/04/24 04:41:44;;;;;;;7.93;4.90;;;10.90;99.90;;;;;;4434386;28;660702;-68
2023/04/24 04:44:32;;;;;;;8.00;4.77;;;11.00;99.90;;;;;;4426360;28;658933;-69
2023/04/24 04:47:21;;;;;;;6.83;5.10;;;11.10;99.90;;;;;;4444651;28;658994;-69
2023/04/24 04:50:10;;;;;;;8.60;5.13;;;11.10;99.90;;;;;;4426639;28;660112;-68
2023/04/24 04:52:57;;;;;;;8.23;5.10;;;11.30;99.90;;;;;;4437043;28;659228;-68
2023/04/24 04:55:45;;;;;;;8.77;5.30;;;11.40;99.90;;;;;;4445673;28;659011;-68
2023/04/24 04:58:32;;;;;;;8.13;4.97;;;11.50;99.90;;;;;;4435053;28;659966;-68
2023/04/24 05:01:22;;;;;;;8.00;4.90;;;11.70;99.90;;;;;;4443398;28;659245;-69
2023/04/24 05:04:10;;;;;;;7.50;4.77;;;11.80;99.90;;;;;;4432503;28;659666;-69
2023/04/24 05:06:57;;;;;;;6.63;4.60;;;12.00;99.90;;;;;;4451062;28;659762;-68
2023/04/24 05:09:45;;;;;;;9.00;4.63;;;12.10;99.90;;;;;;4450701;28;659297;-69
2023/04/24 05:12:32;;;;;;;11.23;4.60;;;12.30;99.90;;;;;;4446104;28;658567;-68
2023/04/24 05:15:20;;;;;;;8.17;4.73;;;12.40;99.90;;;;;;4448529;28;660124;-70
2023/04/24 05:18:09;;;;;;;8.03;4.20;;;12.50;99.90;;;;;;4455385;28;659729;-70
2023/04/24 05:20:56;;;;;;;8.13;4.40;;;12.70;99.90;;;;;;4439035;28;658996;-69
2023/04/24 05:23:43;;;;;;;11.70;4.43;;;12.80;99.90;;;;;;4448337;28;659277;-68
2023/04/24 05:26:30;;;;;;;11.10;4.70;;;13.00;99.90;;;;;;4411495;28;659842;-69
2023/04/24 05:29:19;;;;;;;8.73;4.70;;;13.10;99.90;;;;;;4454904;28;660802;-69
2023/04/24 05:32:06;;;;;;;6.47;4.20;;;13.30;99.90;;;;;;4427742;28;659340;-69
2023/04/24 05:34:55;;;;;;;9.80;4.67;;;13.40;99.90;;;;;;4453277;28;658980;-74
2023/04/24 05:37:42;;;;;;;7.03;4.90;;;13.60;99.90;;;;;;4429441;28;659791;-72
2023/04/24 05:40:29;;;;;;;7.10;4.40;;;13.70;99.90;;;;;;4439765;28;658322;-73
2023/04/24 05:43:16;;;;;;;12.10;5.00;;;13.90;99.90;;;;;;4429536;28;658731;-72
2023/04/24 05:46:04;;;;;;;7.13;4.33;;;14.00;99.90;;;;;;4452022;28;660306;-73
2023/04/24 05:48:51;;;;;;;7.57;4.63;;;14.10;99.90;;;;;;4436087;28;659058;-73
2023/04/24 05:51:40;;;;;;;7.03;4.27;;;14.20;99.90;;;;;;4443776;28;659104;-73
2023/04/24 05:54:27;;;;;;;6.93;4.60;;;14.30;99.90;;;;;;4413518;28;659800;-73
2023/04/24 05:57:14;;;;;;;10.67;4.70;;;14.50;99.90;;;;;;4456939;28;658615;-73
2023/04/24 06:00:01;;;;;;;8.83;4.67;;;14.60;99.90;;;;;;4426799;28;659355;-73
2023/04/24 06:02:49;;;;;;;8.33;4.70;;;14.80;99.90;;;;;;4428165;28;659307;-73
2023/04/24 06:05:36;;;;;;;8.50;4.60;;;14.90;99.90;;;;;;4319015;28;658953;-73
2023/04/24 06:08:25;;;;;;;6.50;3.83;;;15.00;99.90;;;;;;4331193;28;659257;-72
2023/04/24 06:11:12;;;;;;;6.80;4.40;;;15.10;99.90;;;;;;4306493;28;658593;-72
2023/04/24 06:14:00;;;;;;;8.47;4.23;;;15.20;99.90;;;;;;4455664;28;658720;-73
2023/04/24 06:16:47;;;;;;;10.67;5.30;;;15.30;99.90;;;;;;4440421;28;658745;-73
2023/04/24 06:19:35;;;;;;;8.13;4.53;;;15.40;99.90;;;;;;4445699;28;660060;-73
2023/04/24 06:22:23;;;;;;;16.43;4.83;;;15.60;99.90;;;;;;4442550;28;659025;-74
2023/04/24 06:25:12;;;;;;;7.57;4.73;;;15.70;99.90;;;;;;4442344;28;660006;-73
2023/04/24 06:27:59;;;;;;;8.20;4.37;;;15.90;99.90;;;;;;4433431;28;660024;-73
2023/04/24 06:30:46;;;;;;;12.07;4.93;;;16.10;99.90;;;;;;4412770;28;658380;-72
2023/04/24 06:33:33;;;;;;;12.25;4.85;;;16.20;99.90;;;;;;4450119;28;660247;-73
2023/04/24 06:36:20;;;;;;;11.07;4.60;;;16.30;99.90;;;;;;4422338;28;659792;-73
2023/04/24 06:39:08;;;;;;;6.47;4.13;;;16.40;99.90;;;;;;4443662;28;661310;-73
2023/04/24 06:41:57;;;;;;;12.10;4.47;;;16.50;99.90;;;;;;4429708;28;660575;-73
2023/04/24 06:44:44;;;;;;;6.63;4.40;;;16.60;99.90;;;;;;4437233;28;659254;-73
2023/04/24 06:47:32;;;;;;;8.07;4.60;;;16.70;99.90;;;;;;4424440;28;661429;-74
2023/04/24 06:50:19;;;;;;;5.20;4.20;;;16.80;99.90;;;;;;4440473;28;658683;-74
2023/04/24 06:53:06;;;;;;;7.97;4.10;;;16.90;99.90;;;;;;4411551;28;659003;-74
2023/04/24 06:55:53;;;;;;;9.10;4.50;;;17.00;99.90;;;;;;4437778;28;659661;-74
2023/04/24 06:58:42;;;;;;;7.43;4.10;;;17.10;99.90;;;;;;4430412;28;658995;-74
2023/04/24 07:01:29;;;;;;;5.73;3.90;;;17.10;99.90;;;;;;4444179;28;658862;-74
2023/04/24 07:04:17;;;;;;;6.73;3.77;;;17.20;99.90;;;;;;4419282;28;658590;-74
2023/04/24 07:07:04;;;;;;;7.87;3.83;;;17.30;99.90;;;;;;4440127;28;658622;-74
2023/04/24 07:09:51;;;;;;;7.77;3.93;;;17.40;99.90;;;;;;4426117;28;658995;-74
2023/04/24 07:12:39;;;;;;;6.23;3.80;;;17.50;99.90;;;;;;4436815;28;659689;-74
2023/04/24 07:15:27;;;;;;;4.77;3.93;;;17.50;99.90;;;;;;4415924;28;658942;-74
2023/04/24 07:18:15;;;;;;;4.53;3.77;;;17.60;99.90;;;;;;4437310;28;658613;-74
2023/04/24 07:21:02;;;;;;;4.57;3.57;;;17.80;99.90;;;;;;4448820;28;658986;-74
2023/04/24 07:23:50;;;;;;;7.87;3.90;;;17.80;99.90;;;;;;4440484;28;658604;-75
2023/04/24 07:26:37;;;;;;;6.57;3.50;;;17.90;99.90;;;;;;4430209;28;659154;-75
2023/04/24 07:29:24;;;;;;;9.70;3.97;;;18.00;99.90;;;;;;4444662;28;658353;-74
2023/04/24 07:32:13;;;;;;;6.63;3.67;;;18.10;99.90;;;;;;4416419;28;658988;-74
2023/04/24 07:35:00;;;;;;;9.33;3.50;;;18.30;99.90;;;;;;4433722;28;659173;-75
2023/04/24 07:37:47;;;;;;;6.27;3.80;;;18.40;99.90;;;;;;4448476;28;658809;-74
2023/04/24 07:40:35;;;;;;;8.20;3.90;;;18.70;99.90;;;;;;4449139;28;659371;-74
2023/04/24 07:43:23;;;;;;;7.40;3.83;;;19.00;99.90;;;;;;4459943;28;658942;-74
2023/04/24 07:46:10;;;;;;;7.13;3.53;;;19.30;99.90;;;;;;4431303;28;658918;-74
2023/04/24 07:49:01;;;;;;;10.40;4.00;;;19.30;99.90;;;;;;4458080;28;660050;-75
2023/04/24 07:51:48;;;;;;;10.23;3.93;;;19.30;99.90;;;;;;4425858;28;660512;-75
2023/04/24 07:54:36;;;;;;;7.47;3.90;;;19.50;99.90;;;;;;4424558;28;659866;-74
2023/04/24 07:57:24;;;;;;;6.77;3.77;;;19.80;99.90;;;;;;4430467;28;658511;-75
2023/04/24 08:00:12;;;;;;;7.53;4.10;;;20.00;99.90;;;;;;4424283;28;658388;-75
2023/04/24 08:02:59;;;;;;;7.23;4.17;;;20.20;99.90;;;;;;4448417;28;659601;-75
2023/04/24 08:05:48;;;;;;;5.20;3.70;;;20.40;99.90;;;;;;4428136;28;659386;-75
2023/04/24 08:08:35;;;;;;;7.43;3.90;;;20.70;99.90;;;;;;4439249;28;658506;-74
2023/04/24 08:11:22;;;;;;;8.10;3.77;;;20.70;99.90;;;;;;4447374;27;658978;-75
2023/04/24 08:14:12;;;;;;;8.30;3.63;;;21.00;99.90;;;;;;4440461;28;658268;-74
2023/04/24 08:17:00;;;;;;;7.87;3.60;;;21.30;99.90;;;;;;4451552;28;658617;-75
2023/04/24 08:19:48;;;;;;;7.47;3.80;;;21.40;99.90;;;;;;4421234;28;660430;-75
2023/04/24 08:22:37;;;;;;;4.80;3.43;;;21.90;99.90;;;;;;4413956;28;658370;-75
2023/04/24 08:25:24;;;;;;;4.77;3.57;;;22.20;99.90;;;;;;4436919;28;658086;-75
2023/04/24 08:28:11;;;;;;;5.00;3.30;;;22.50;99.90;;;;;;4424503;28;659275;-76
2023/04/24 08:30:58;;;;;;;4.90;3.43;;;22.20;99.90;;;;;;4461092;28;659367;-75
2023/04/24 08:33:47;;;;;;;6.93;3.60;;;21.70;99.90;;;;;;4429182;28;658744;-75
2023/04/24 08:36:34;;;;;;;3.80;3.40;;;21.80;99.90;;;;;;4459469;28;658149;-75
2023/04/24 08:39:23;;;;;;;6.30;3.53;;;21.80;99.90;;;;;;4428113;28;658424;-75
2023/04/24 08:42:10;;;;;;;11.47;3.77;;;22.10;99.90;;;;;;4424894;28;658478;-75
2023/04/24 08:44:57;;;;;;;7.70;3.40;;;22.70;99.90;;;;;;4444047;28;660595;-74
2023/04/24 08:47:45;;;;;;;6.73;3.70;;;23.20;99.90;;;;;;4441565;28;658259;-75
2023/04/24 08:50:33;;;;;;;5.07;3.80;;;23.40;99.90;;;;;;4448253;28;659367;-74
2023/04/24 08:53:20;;;;;;;5.87;3.77;;;23.10;99.90;;;;;;4428437;28;659702;-75
2023/04/24 08:56:09;;;;;;;4.37;3.57;;;22.80;99.90;;;;;;4454437;28;659748;-75
2023/04/24 08:58:56;;;;;;;5.43;3.60;;;22.40;99.90;;;;;;4419959;28;659218;-73
2023/04/24 09:01:43;;;;;;;4.93;3.63;;;21.90;99.90;;;;;;4438147;28;659774;-75
2023/04/24 09:04:31;;;;;;;6.60;3.87;;;22.00;99.90;;;;;;4418538;28;659305;-74
2023/04/24 09:07:18;;;;;;;5.40;3.50;;;22.20;99.90;;;;;;4439292;28;658728;-75
2023/04/24 09:10:07;;;;;;;5.37;3.80;;;21.30;99.90;;;;;;4417787;28;659731;-75
2023/04/24 09:12:56;;;;;;;5.73;4.10;;;21.40;99.90;;;;;;4440020;28;658369;-75
2023/04/24 09:15:43;;;;;;;5.23;3.60;;;21.80;99.90;;;;;;4421160;28;659328;-73
2023/04/24 09:18:30;;;;;;;6.50;3.47;;;22.20;99.90;;;;;;4426776;28;658245;-75
2023/04/24 09:21:18;;;;;;;7.23;3.60;;;21.60;99.90;;;;;;4448901;28;660443;-74
2023/04/24 09:24:06;;;;;;;4.57;3.60;;;21.20;99.90;;;;;;4449971;28;658851;-73
2023/04/24 09:26:58;;;;;;;4.73;3.40;;;21.40;99.90;;;;;;4443853;28;659084;-72
2023/04/24 09:29:56;;;;;;;4.77;3.17;;;21.60;99.90;;;;;;4411508;28;658514;-74
2023/04/24 09:32:43;;;;;;;4.90;3.00;;;22.00;99.90;;;;;;4423244;28;659389;-74
2023/04/24 09:35:30;;;;;;;4.23;2.67;;;22.00;99.90;;;;;;4426938;28;658539;-74
2023/04/24 09:38:17;;;;;;;10.43;3.17;;;22.00;99.90;;;;;;4443564;28;658889;-73
2023/04/24 09:41:06;;;;;;;4.43;2.63;;;22.20;99.90;;;;;;4431078;28;660101;-74
2023/04/24 09:43:54;;;;;;;5.40;3.30;;;22.40;99.90;;;;;;4451914;28;660032;-73
2023/04/24 09:46:43;;;;;;;4.43;3.13;;;22.20;99.90;;;;;;4422781;28;659626;-73
2023/04/24 09:49:33;;;;;;;6.20;3.37;;;21.60;99.90;;;;;;4410733;28;658177;-73
2023/04/24 09:52:21;;;;;;;5.23;3.90;;;21.90;99.90;;;;;;4432768;28;658757;-73
2023/04/24 09:55:12;;;;;;;6.43;3.60;;;21.50;99.90;;;;;;4436094;28;659585;-73
2023/04/24 09:58:00;;;;;;;7.47;3.60;;;21.40;99.90;;;;;;4421163;27;658594;-72
2023/04/24 10:00:48;;;;;;;5.90;3.73;;;21.50;99.90;;;;;;4420526;28;659833;-72
2023/04/24 10:03:37;;;;;;;6.53;3.80;;;21.50;99.90;;;;;;4434353;28;659145;-72
2023/04/24 10:06:25;;;;;;;4.77;3.60;;;21.50;99.90;;;;;;4440771;28;658759;-74
2023/04/24 10:09:13;;;;;;;6.17;3.27;;;21.00;99.90;;;;;;4420472;28;660502;-73
2023/04/24 10:12:01;;;;;;;6.13;3.50;;;20.80;99.90;;;;;;4420248;28;658820;-73
2023/04/24 10:14:49;;;;;;;6.73;3.40;;;21.00;99.90;;;;;;4450421;28;658868;-73
2023/04/24 10:17:37;;;;;;;8.17;4.10;;;21.20;99.90;;;;;;4420729;28;659043;-74
2023/04/24 10:20:26;;;;;;;6.63;3.67;;;21.30;99.90;;;;;;4454407;28;658208;-75
2023/04/24 10:23:13;;;;;;;8.47;3.60;;;20.90;99.90;;;;;;4415471;28;659996;-73
2023/04/24 10:26:00;;;;;;;4.93;3.47;;;20.80;99.90;;;;;;4415138;28;659888;-74
2023/04/24 10:28:48;;;;;;;8.33;3.80;;;21.20;99.90;;;;;;4439341;28;660014;-74
2023/04/24 10:31:35;;;;;;;6.07;3.70;;;21.40;99.90;;;;;;4427443;28;658681;-74
2023/04/24 10:34:22;;;;;;;8.37;3.83;;;21.50;99.90;;;;;;4434704;28;659630;-74
2023/04/24 10:37:13;;;;;;;6.20;3.40;;;22.00;99.90;;;;;;4441762;28;658795;-74
2023/04/24 10:40:00;;;;;;;7.10;3.57;;;22.30;99.90;;;;;;4405872;28;660376;-74
2023/04/24 10:42:52;;;;;;;6.80;3.77;;;22.70;99.90;;;;;;4440497;27;657982;-74
2023/04/24 10:45:39;;;;;;;8.13;3.67;;;22.90;99.90;;;;;;4422877;28;658910;-74
2023/04/24 10:48:27;;;;;;;9.40;3.63;;;23.20;99.90;;;;;;4411285;28;659872;-76
2023/04/24 10:51:16;;;;;;;9.13;3.80;;;23.60;99.90;;;;;;4437522;28;659107;-74
2023/04/24 10:54:07;;;;;;;6.77;3.40;;;23.90;99.90;;;;;;4456106;28;659064;-74
2023/04/24 10:56:54;;;;;;;8.63;3.70;;;24.50;99.90;;;;;;4414777;28;658897;-75
2023/04/24 10:59:41;;;;;;;6.40;3.33;;;24.80;99.90;;;;;;4416274;28;658681;-74
2023/04/24 11:02:37;;;;;;;8.90;3.58;;;25.50;99.90;;;;;;4438332;28;659246;-75
2023/04/24 11:05:36;;;;;;;5.45;3.10;;;25.80;99.90;;;;;;4423966;28;658801;-75
2023/04/24 11:08:25;;;;;;;5.72;3.00;;;25.50;99.90;;;;;;4415876;28;659400;-74
2023/04/24 11:11:15;;;;;;;7.70;3.30;;;25.30;99.90;;;;;;4419430;28;659153;-75
2023/04/24 11:14:05;;;;;;;9.60;3.13;;;24.80;99.90;;;;;;4415334;28;658961;-74
2023/04/24 11:16:53;;;;;;;4.93;3.20;;;23.30;99.90;;;;;;4413233;28;658755;-75
2023/04/24 11:19:40;;;;;;;8.13;3.40;;;21.60;99.90;;;;;;4426897;28;659133;-73
2023/04/24 11:22:28;;;;;;;7.20;3.53;;;20.90;99.90;;;;;;4453144;28;659882;-73
2023/04/24 11:25:16;;;;;;;7.43;3.30;;;21.10;99.90;;;;;;4447886;28;658664;-74
2023/04/24 11:28:07;;;;;;;4.10;3.33;;;20.80;99.90;;;;;;4452645;28;659605;-74
2023/04/24 11:30:55;;;;;;;10.80;4.50;;;20.70;99.90;;;;;;4433656;28;658323;-73
2023/04/24 11:33:42;;;;;;;13.30;5.03;;;20.50;99.90;;;;;;4421501;28;660591;-73
2023/04/24 11:36:29;;;;;;;6.93;4.20;;;19.60;99.90;;;;;;4451426;28;659840;-72
2023/04/24 11:39:16;;;;;;;12.97;4.50;;;19.60;99.90;;;;;;4422244;28;658589;-72
2023/04/24 11:42:06;;;;;;;9.47;4.83;;;19.20;99.90;;;;;;4437439;28;660592;-73
2023/04/24 11:44:55;;;;;;;8.37;4.83;;;19.20;99.90;;;;;;4428913;28;658896;-73
2023/04/24 11:47:42;;;;;;;8.53;5.10;;;19.40;99.90;;;;;;4416047;28;659682;-74
2023/04/24 11:50:30;;;;;;;10.20;4.57;;;19.80;99.90;;;;;;4452905;28;658448;-74
2023/04/24 11:53:19;;;;;;;12.50;5.10;;;19.60;99.90;;;;;;4423535;28;661160;-73
2023/04/24 11:56:07;;;;;;;10.50;4.50;;;19.50;99.90;;;;;;4430457;28;659533;-73
2023/04/24 11:58:54;;;;;;;10.20;5.17;;;19.40;99.90;;;;;;4441727;28;659948;-71
2023/04/24 12:01:46;;;;;;;9.17;4.70;;;19.20;99.90;;;;;;4357182;28;659896;-73
2023/04/24 12:04:41;;;;;;;10.23;4.80;;;19.10;99.90;;;;;;4372011;28;659322;-74
2023/04/24 12:07:28;;;;;;;10.40;4.80;;;18.90;99.90;;;;;;4291412;28;659466;-73
2023/04/24 12:10:15;;;;;;;7.77;4.60;;;19.30;99.90;;;;;;4388331;28;659550;-74
2023/04/24 12:13:03;;;;;;;7.90;4.93;;;19.40;99.90;;;;;;4444414;28;659563;-75
2023/04/24 12:15:51;;;;;;;8.90;4.80;;;19.60;99.90;;;;;;4429110;28;658697;-74
2023/04/24 12:18:45;;;;;;;8.60;4.67;;;19.70;99.90;;;;;;4438193;28;659376;-70
2023/04/24 12:21:32;;;;;;;9.97;4.83;;;19.70;99.90;;;;;;4414872;28;659319;-72
2023/04/24 12:24:19;;;;;;;8.20;4.90;;;19.20;99.90;;;;;;4449797;28;658189;-72
2023/04/24 12:27:07;;;;;;;9.43;5.10;;;18.80;99.90;;;;;;4417680;28;659247;-72
2023/04/24 12:29:57;;;;;;;9.77;4.57;;;18.60;99.90;;;;;;4437786;28;658619;-74
2023/04/24 12:32:45;;;;;;;10.00;5.07;;;18.20;99.90;;;;;;4418899;28;658691;-75
2023/04/24 12:35:35;;;;;;;9.13;4.77;;;18.00;99.90;;;;;;4415506;28;661169;-70
2023/04/24 12:38:23;;;;;;;8.00;4.60;;;17.60;99.90;;;;;;4422185;28;658355;-73
2023/04/24 12:41:14;;;;;;;7.27;4.47;;;17.50;99.90;;;;;;4422673;28;658516;-71
2023/04/24 12:44:01;;;;;;;5.60;4.33;;;17.80;99.90;;;;;;4420601;28;658546;-72
2023/04/24 12:46:48;;;;;;;5.77;4.23;;;17.50;99.90;;;;;;4454278;28;658681;-73
2023/04/24 12:49:36;;;;;;;7.20;4.13;;;17.60;99.90;;;;;;4425290;28;658458;-70
2023/04/24 12:52:25;;;;;;;9.50;4.90;;;17.00;99.90;;;;;;4439235;28;658775;-73
2023/04/24 12:55:13;;;;;;;7.73;4.63;;;16.80;99.90;;;;;;4427908;28;658989;-71
2023/04/24 12:58:01;;;;;;;6.40;4.40;;;16.70;99.90;;;;;;4450774;28;658503;-71
2023/04/24 13:00:49;;;;;;;5.77;3.93;;;16.40;99.90;;;;;;4439545;28;659108;-73
2023/04/24 13:03:36;;;;;;;6.77;4.60;;;16.40;99.90;;;;;;4426143;28;658808;-73
2023/04/24 13:06:23;;;;;;;10.37;5.37;;;16.30;99.90;;;;;;4457902;28;659362;-73
2023/04/24 13:09:12;;;;;;;7.67;4.87;;;16.30;99.90;;;;;;4422353;28;660052;-74
2023/04/24 13:12:00;;;;;;;9.30;5.10;;;16.30;99.90;;;;;;4444356;28;658868;-73
2023/04/24 13:14:47;;;;;;;8.77;5.07;;;16.30;99.90;;;;;;4429456;28;659660;-73
2023/04/24 13:17:35;;;;;;;7.07;4.57;;;16.20;99.90;;;;;;4439997;28;659009;-70
2023/04/24 13:20:22;;;;;;;7.47;4.93;;;16.30;99.90;;;;;;4442661;28;659561;-72
2023/04/24 13:23:10;;;;;;;11.77;4.93;;;16.30;99.90;;;;;;4445437;28;658732;-73
2023/04/24 13:25:58;;;;;;;10.03;4.60;;;16.30;99.90;;;;;;4412134;28;660901;-71
2023/04/24 13:28:46;;;;;;;11.30;4.53;;;16.50;99.90;;;;;;4428431;28;659611;-72
2023/04/24 13:31:33;;;;;;;6.93;3.40;;;16.40;99.90;;;;;;4432332;28;660278;-74
2023/04/24 13:34:20;;;;;;;7.10;2.93;;;16.00;99.90;;;;;;4420549;28;658542;-73
2023/04/24 13:37:08;;;;;;;7.93;3.03;;;15.90;99.90;;;;;;4445231;28;658889;-72
2023/04/24 13:39:55;;;;;;;4.67;2.93;;;15.90;99.90;;;;;;4427951;28;658953;-73
2023/04/24 13:42:44;;;;;;;4.13;3.13;;;15.90;99.90;;;;;;4445430;28;658586;-73
2023/04/24 13:45:31;;;;;;;3.57;2.60;;;16.00;99.90;;;;;;4418127;28;659287;-73
2023/04/24 13:48:18;;;;;;;3.67;2.33;;;16.00;99.90;;;;;;4439938;28;658388;-71
2023/04/24 13:51:05;;;;;;;2.20;1.50;;;15.80;99.90;;;;;;4429412;28;658719;-72
2023/04/24 13:53:53;;;;;;;3.20;1.50;;;15.70;99.90;;;;;;4447295;28;660972;-72
2023/04/24 13:56:40;;;;;;;3.47;1.73;;;15.50;99.90;;;;;;4427467;28;659450;-72
2023/04/24 13:59:29;;;;;;;2.50;1.70;;;15.40;99.90;;;;;;4445948;28;658977;-74
2023/04/24 14:02:16;;;;;;;2.70;1.80;;;15.30;99.90;;;;;;4419406;28;659087;-74
2023/04/24 14:05:04;;;;;;;4.27;2.00;;;15.40;99.90;;;;;;4442989;28;659269;-73
2023/04/24 14:07:51;;;;;;;3.63;1.93;;;15.50;99.90;;;;;;4434221;28;658488;-71
2023/04/24 14:10:38;;;;;;;2.47;2.00;;;15.60;99.90;;;;;;4437962;28;659782;-71
2023/04/24 14:13:26;;;;;;;2.00;1.43;;;15.60;99.90;;;;;;4420585;28;658499;-71
2023/04/24 14:16:15;;;;;;;1.90;1.60;;;15.40;99.90;;;;;;4440593;28;658800;-74
2023/04/24 14:19:02;;;;;;;1.97;1.70;;;15.20;99.90;;;;;;4426745;28;658479;-70
2023/04/24 14:21:49;;;;;;;5.23;2.10;;;15.20;99.90;;;;;;4441920;28;658316;-73